Time;durP1;ratioP1;P1;durP2;ratioP2;P2;SDS_P1;SDS_P2;PMS_P1;PMS_P2;Temp;Humidity;BMP_temperature;BMP_pressure;BME280_temperature;BME280_humidity;BME280_pressure;Samples;Min_cycle;Max_cycle;Signal;HPM_P1;HPM_P2
2023/08/06 00:00:13;;;;;;;9.10;8.40;;;16.20;99.90;;;;;;5065232;28;20450;-76
2023/08/06 00:03:20;;;;;;;9.30;8.50;;;16.40;99.90;;;;;;5070375;28;20517;-77
2023/08/06 00:05:55;;;;;;;9.67;8.87;;;16.40;99.90;;;;;;5039661;28;20521;-77
2023/08/06 00:08:39;;;;;;;9.53;8.63;;;16.50;99.90;;;;;;5074946;28;21064;-77
2023/08/06 00:11:18;;;;;;;8.00;7.20;;;16.40;99.90;;;;;;5075529;28;20460;-77
2023/08/06 00:13:56;;;;;;;7.07;6.57;;;16.30;99.90;;;;;;5074254;28;20442;-78
2023/08/06 00:16:38;;;;;;;6.80;6.27;;;16.30;99.90;;;;;;5071771;28;20486;-77
2023/08/06 00:19:24;;;;;;;5.73;5.33;;;16.20;99.90;;;;;;5071473;28;20466;-77
2023/08/06 00:22:30;;;;;;;6.00;5.57;;;16.20;99.90;;;;;;5070204;28;20454;-76
2023/08/06 00:25:08;;;;;;;5.17;4.63;;;16.20;99.90;;;;;;5069671;28;20477;-78
2023/08/06 00:27:47;;;;;;;5.07;4.77;;;16.20;99.90;;;;;;5069443;28;20419;-78
2023/08/06 00:30:21;;;;;;;5.37;4.87;;;16.20;99.90;;;;;;5070471;28;20530;-76
2023/08/06 00:32:52;;;;;;;4.90;4.60;;;16.20;99.90;;;;;;5071645;28;20453;-75
2023/08/06 00:35:24;;;;;;;6.07;5.63;;;16.10;99.90;;;;;;5070701;28;20462;-78
2023/08/06 00:37:57;;;;;;;5.67;5.27;;;16.10;99.90;;;;;;5068736;28;20454;-77
2023/08/06 00:40:24;;;;;;;5.50;5.10;;;16.00;99.90;;;;;;5064306;28;20543;-76
2023/08/06 00:42:54;;;;;;;6.37;5.77;;;16.00;99.90;;;;;;5061687;28;20889;-76
2023/08/06 00:45:22;;;;;;;5.23;4.80;;;15.70;99.90;;;;;;5061638;28;21173;-78
2023/08/06 00:47:55;;;;;;;4.67;4.37;;;16.00;99.90;;;;;;5059393;28;20949;-77
2023/08/06 00:50:23;;;;;;;5.07;4.67;;;15.90;99.90;;;;;;5061782;28;20442;-78
2023/08/06 00:52:56;;;;;;;3.60;3.40;;;15.90;99.90;;;;;;5061277;28;20438;-77
2023/08/06 00:55:24;;;;;;;3.77;3.57;;;15.90;99.90;;;;;;5057715;28;20523;-77
2023/08/06 00:57:55;;;;;;;4.60;4.30;;;15.80;99.90;;;;;;5056080;28;20450;-77
2023/08/06 01:00:26;;;;;;;5.07;4.63;;;15.80;99.90;;;;;;5053330;28;20436;-78
2023/08/06 01:02:57;;;;;;;5.20;4.90;;;15.50;99.90;;;;;;5052541;28;20474;-77
2023/08/06 01:05:26;;;;;;;5.07;4.77;;;15.80;99.90;;;;;;5052785;28;20929;-77
2023/08/06 01:08:09;;;;;;;5.20;4.90;;;15.70;99.90;;;;;;5052202;28;20909;-77
2023/08/06 01:10:48;;;;;;;5.00;4.60;;;15.70;99.90;;;;;;5052657;28;21395;-77
2023/08/06 01:13:25;;;;;;;4.90;4.50;;;15.70;99.90;;;;;;5052159;28;20453;-77
2023/08/06 01:15:58;;;;;;;5.37;5.07;;;15.70;99.90;;;;;;5052168;28;20531;-76
2023/08/06 01:18:26;;;;;;;4.07;3.73;;;15.70;99.90;;;;;;5052539;28;20427;-77
2023/08/06 01:21:06;;;;;;;4.70;4.30;;;15.60;99.90;;;;;;5052844;28;20445;-77
2023/08/06 01:23:36;;;;;;;5.40;5.10;;;15.60;99.90;;;;;;5051075;28;20507;-77
2023/08/06 01:26:16;;;;;;;5.43;4.93;;;15.60;99.90;;;;;;5052033;28;21072;-79
2023/08/06 01:28:52;;;;;;;4.47;4.17;;;15.60;99.90;;;;;;5052446;28;20981;-77
2023/08/06 01:31:25;;;;;;;4.17;3.83;;;15.60;99.90;;;;;;5051832;28;20470;-78
2023/08/06 01:33:55;;;;;;;4.80;4.50;;;15.60;99.90;;;;;;5052572;28;20426;-78
2023/08/06 01:36:25;;;;;;;4.30;3.90;;;15.60;99.90;;;;;;5051424;28;20469;-78
2023/08/06 01:38:53;;;;;;;4.50;4.30;;;15.50;99.90;;;;;;5051927;28;20544;-76
2023/08/06 01:41:21;;;;;;;3.77;3.57;;;15.60;99.90;;;;;;5052037;28;20941;-78
2023/08/06 01:43:49;;;;;;;4.20;4.00;;;15.50;99.90;;;;;;5057136;28;20434;-77
2023/08/06 01:46:21;;;;;;;3.73;3.53;;;15.50;99.90;;;;;;5060878;28;20482;-77
2023/08/06 01:48:49;;;;;;;4.07;3.73;;;15.50;99.90;;;;;;5063642;28;20426;-77
2023/08/06 01:51:22;;;;;;;5.73;3.47;;;15.50;99.90;;;;;;5062642;28;20468;-79
2023/08/06 01:53:51;;;;;;;4.43;4.13;;;15.50;99.90;;;;;;5062571;28;20448;-77
2023/08/06 01:56:21;;;;;;;3.87;3.67;;;15.50;99.90;;;;;;5055615;28;20485;-77
2023/08/06 01:58:49;;;;;;;4.10;3.70;;;15.50;99.90;;;;;;5054137;28;20434;-78
2023/08/06 02:01:19;;;;;;;3.60;3.27;;;15.20;99.90;;;;;;5054655;28;20446;-79
2023/08/06 02:03:46;;;;;;;4.07;3.87;;;15.50;99.90;;;;;;5053331;28;20445;-77
2023/08/06 02:06:14;;;;;;;4.07;3.77;;;15.40;99.90;;;;;;5053398;28;20480;-77
2023/08/06 02:08:42;;;;;;;4.27;3.87;;;15.40;99.90;;;;;;5053354;28;20796;-76
2023/08/06 02:11:16;;;;;;;3.53;3.23;;;15.40;99.90;;;;;;5053413;28;21301;-77
2023/08/06 02:13:44;;;;;;;3.90;3.60;;;15.40;99.90;;;;;;5053963;28;20449;-79
2023/08/06 02:16:16;;;;;;;4.40;4.10;;;15.30;99.90;;;;;;5053049;28;20461;-78
2023/08/06 02:18:43;;;;;;;3.53;3.30;;;15.30;99.90;;;;;;5053244;28;20527;-79
2023/08/06 02:21:14;;;;;;;4.10;3.80;;;15.30;99.90;;;;;;5053237;28;20449;-77
2023/08/06 02:23:44;;;;;;;3.70;3.40;;;15.20;99.90;;;;;;5053114;28;20442;-77
2023/08/06 02:26:16;;;;;;;4.13;3.80;;;15.20;99.90;;;;;;5064980;28;20908;-78
2023/08/06 02:28:44;;;;;;;4.03;3.70;;;15.20;99.90;;;;;;5072859;28;20492;-78
2023/08/06 02:31:17;;;;;;;4.43;4.13;;;15.20;99.90;;;;;;5074250;28;20480;-78
2023/08/06 02:33:49;;;;;;;4.60;3.93;;;15.10;99.90;;;;;;5079124;28;20646;-78
2023/08/06 02:36:29;;;;;;;4.10;3.80;;;15.20;99.90;;;;;;5079434;28;20487;-78
2023/08/06 02:39:02;;;;;;;4.70;4.30;;;15.10;99.90;;;;;;5079471;28;20456;-78
2023/08/06 02:41:35;;;;;;;4.33;3.97;;;15.10;99.90;;;;;;5079289;28;20552;-77
2023/08/06 02:44:09;;;;;;;4.40;4.10;;;15.00;99.90;;;;;;5081954;28;20437;-78
2023/08/06 02:49:26;;;;;;;6.40;4.10;;;14.90;99.90;;;;;;5075989;28;20482;-77
2023/08/06 02:51:53;;;;;;;4.27;3.97;;;14.90;99.90;;;;;;5079818;28;20444;-77
2023/08/06 02:54:24;;;;;;;4.80;4.40;;;14.90;99.90;;;;;;5082101;28;20504;-77
2023/08/06 02:56:53;;;;;;;4.70;4.30;;;14.90;99.90;;;;;;5077541;28;20495;-77
2023/08/06 02:59:24;;;;;;;3.70;3.50;;;14.90;99.90;;;;;;5076320;28;20444;-77
2023/08/06 03:01:55;;;;;;;4.00;3.80;;;14.80;99.90;;;;;;5076843;28;20830;-77
2023/08/06 03:04:23;;;;;;;3.70;3.50;;;14.90;99.90;;;;;;5076226;28;20478;-78
2023/08/06 03:06:51;;;;;;;3.73;3.43;;;14.80;99.90;;;;;;5077336;28;20472;-78
2023/08/06 03:09:19;;;;;;;3.90;3.60;;;14.80;99.90;;;;;;5077563;28;20464;-77
2023/08/06 03:11:47;;;;;;;4.47;3.40;;;14.90;99.90;;;;;;5077324;28;20510;-77
2023/08/06 03:14:20;;;;;;;3.97;3.60;;;14.70;99.90;;;;;;5078720;28;20471;-77
2023/08/06 03:16:48;;;;;;;3.40;3.20;;;14.70;99.90;;;;;;5083943;28;20469;-77
2023/08/06 03:19:18;;;;;;;3.00;2.80;;;14.70;99.90;;;;;;5080986;28;20477;-78
2023/08/06 03:21:53;;;;;;;8.40;3.37;;;14.70;99.90;;;;;;5080503;28;20441;-77
2023/08/06 03:24:35;;;;;;;3.50;3.30;;;14.70;99.90;;;;;;5083774;28;20821;-78
2023/08/06 03:27:05;;;;;;;6.30;4.50;;;14.70;99.90;;;;;;5088944;28;20469;-77
2023/08/06 03:29:51;;;;;;;3.13;2.93;;;14.70;99.90;;;;;;5097436;28;20525;-77
2023/08/06 03:32:34;;;;;;;4.23;3.90;;;14.70;99.90;;;;;;5099303;28;20445;-77
2023/08/06 03:35:25;;;;;;;3.27;3.07;;;14.80;99.90;;;;;;5094542;28;20465;-78
2023/08/06 03:37:56;;;;;;;3.70;3.40;;;14.80;99.90;;;;;;5094507;28;20429;-79
2023/08/06 03:40:35;;;;;;;3.80;3.50;;;14.80;99.90;;;;;;5093968;28;20440;-79
2023/08/06 03:43:08;;;;;;;3.03;2.83;;;14.80;99.90;;;;;;5090293;28;20460;-76
2023/08/06 03:45:37;;;;;;;3.30;3.10;;;14.80;99.90;;;;;;5083394;28;20539;-76
2023/08/06 03:48:08;;;;;;;3.10;2.90;;;14.80;99.90;;;;;;5075922;28;20425;-76
2023/08/06 03:50:39;;;;;;;3.43;2.80;;;14.80;99.90;;;;;;5076161;28;20439;-76
2023/08/06 03:53:10;;;;;;;3.23;3.00;;;14.80;99.90;;;;;;5076583;28;20518;-77
2023/08/06 03:55:38;;;;;;;3.40;3.20;;;14.70;99.90;;;;;;5077837;28;20885;-76
2023/08/06 03:58:05;;;;;;;3.30;3.00;;;14.70;99.90;;;;;;5079949;28;20441;-78
2023/08/06 04:00:34;;;;;;;3.00;2.80;;;14.70;99.90;;;;;;5083141;28;20456;-75
2023/08/06 04:03:03;;;;;;;3.17;2.97;;;14.70;99.90;;;;;;5091444;28;20497;-78
2023/08/06 04:05:35;;;;;;;3.93;3.40;;;14.70;99.90;;;;;;5085824;28;20464;-79
2023/08/06 04:08:06;;;;;;;4.70;3.57;;;14.70;99.90;;;;;;5090507;28;20445;-76
2023/08/06 04:10:37;;;;;;;4.30;3.90;;;14.70;99.90;;;;;;5090323;28;20417;-77
2023/08/06 04:13:08;;;;;;;3.57;3.37;;;14.80;99.90;;;;;;5090412;28;20417;-76
2023/08/06 04:15:35;;;;;;;3.30;3.10;;;14.70;99.90;;;;;;5089563;28;20467;-77
2023/08/06 04:18:04;;;;;;;4.13;3.63;;;14.70;99.90;;;;;;5085834;28;20512;-78
2023/08/06 04:20:32;;;;;;;3.43;3.23;;;14.70;99.90;;;;;;5083775;28;20429;-76
2023/08/06 04:22:59;;;;;;;4.03;3.63;;;14.60;99.90;;;;;;5070524;28;20461;-79
2023/08/06 04:25:27;;;;;;;3.57;3.27;;;14.50;99.90;;;;;;5057343;28;20489;-79
2023/08/06 04:27:54;;;;;;;6.67;3.70;;;14.50;99.90;;;;;;5057568;28;20884;-77
2023/08/06 04:30:22;;;;;;;3.87;3.57;;;14.60;99.90;;;;;;5057256;28;20449;-78
2023/08/06 04:32:51;;;;;;;3.80;3.50;;;14.60;99.90;;;;;;5056709;28;20446;-78
2023/08/06 04:35:20;;;;;;;3.87;3.57;;;14.60;99.90;;;;;;5055456;28;20502;-78
2023/08/06 04:37:48;;;;;;;3.83;3.53;;;14.70;99.90;;;;;;5057522;28;20954;-78
2023/08/06 04:40:15;;;;;;;4.33;3.90;;;14.70;99.90;;;;;;5060367;28;20430;-78
2023/08/06 04:42:42;;;;;;;5.90;3.60;;;14.70;99.90;;;;;;5055750;28;20486;-76
2023/08/06 04:45:11;;;;;;;3.53;3.27;;;14.70;99.90;;;;;;5058106;28;20487;-77
2023/08/06 04:47:38;;;;;;;3.13;2.50;;;14.70;99.90;;;;;;5058960;28;20479;-76
2023/08/06 04:50:06;;;;;;;3.40;3.00;;;14.70;99.90;;;;;;5059205;28;20426;-79
2023/08/06 04:52:36;;;;;;;3.40;3.10;;;14.70;99.90;;;;;;5056907;28;20461;-79
2023/08/06 04:55:05;;;;;;;2.97;2.77;;;14.70;99.90;;;;;;5055068;28;20466;-77
2023/08/06 04:57:33;;;;;;;2.77;2.50;;;14.70;99.90;;;;;;5059173;28;20868;-77
2023/08/06 05:00:00;;;;;;;2.93;2.73;;;14.70;99.90;;;;;;5060025;28;20429;-77
2023/08/06 05:02:28;;;;;;;3.27;3.07;;;14.70;99.90;;;;;;5062083;28;20442;-76
2023/08/06 05:04:56;;;;;;;4.47;2.47;;;14.70;99.90;;;;;;5062650;28;20454;-75
2023/08/06 05:07:23;;;;;;;3.07;2.77;;;14.80;99.90;;;;;;5062973;28;20496;-77
2023/08/06 05:09:53;;;;;;;2.30;2.10;;;14.70;99.90;;;;;;5058551;28;20461;-77
2023/08/06 05:12:21;;;;;;;2.87;2.67;;;14.70;99.90;;;;;;5065161;28;20446;-76
2023/08/06 05:14:49;;;;;;;2.33;2.13;;;14.80;99.90;;;;;;5066443;28;20461;-77
2023/08/06 05:17:16;;;;;;;4.73;2.67;;;14.80;99.90;;;;;;5070715;28;20442;-78
2023/08/06 05:19:43;;;;;;;2.70;2.50;;;14.80;99.90;;;;;;5064188;28;20529;-78
2023/08/06 05:22:11;;;;;;;3.57;2.63;;;14.80;99.90;;;;;;5070716;28;20456;-77
2023/08/06 05:24:41;;;;;;;2.33;2.23;;;14.80;99.90;;;;;;5071188;28;20457;-78
2023/08/06 05:27:15;;;;;;;2.73;2.53;;;14.90;99.90;;;;;;5069031;28;20470;-77
2023/08/06 05:29:43;;;;;;;2.03;1.90;;;14.60;99.90;;;;;;5074113;28;20518;-79
2023/08/06 05:32:11;;;;;;;2.47;2.27;;;14.90;99.90;;;;;;5071357;28;20453;-78
2023/08/06 05:34:38;;;;;;;2.13;2.00;;;14.90;99.90;;;;;;5062209;28;20458;-78
2023/08/06 05:37:07;;;;;;;1.80;1.70;;;14.90;99.90;;;;;;5061451;28;20438;-77
2023/08/06 05:39:35;;;;;;;3.37;1.87;;;15.00;99.90;;;;;;5060141;28;20489;-78
2023/08/06 05:42:03;;;;;;;2.20;2.00;;;15.00;99.90;;;;;;5062310;28;20446;-78
2023/08/06 05:44:33;;;;;;;2.40;1.90;;;15.10;99.90;;;;;;5058786;28;20430;-76
2023/08/06 05:47:01;;;;;;;2.23;2.03;;;15.20;99.90;;;;;;5059031;28;20461;-76
2023/08/06 05:49:28;;;;;;;2.93;2.20;;;15.30;99.90;;;;;;5060766;28;20544;-76
2023/08/06 05:51:56;;;;;;;1.80;1.70;;;15.30;99.90;;;;;;5057197;28;20453;-78
2023/08/06 05:54:29;;;;;;;2.87;1.80;;;15.30;99.90;;;;;;5058594;28;20537;-77
2023/08/06 05:57:03;;;;;;;1.43;1.43;;;15.30;99.90;;;;;;5062298;28;20499;-79
2023/08/06 05:59:32;;;;;;;1.80;1.70;;;15.30;99.90;;;;;;5064271;28;20465;-78
2023/08/06 06:02:00;;;;;;;1.37;1.30;;;15.30;99.90;;;;;;5064216;28;20450;-78
2023/08/06 06:04:27;;;;;;;1.77;1.50;;;15.40;99.90;;;;;;5064746;28;20461;-77
2023/08/06 06:06:55;;;;;;;1.50;1.40;;;15.40;99.90;;;;;;5065200;28;20480;-78
2023/08/06 06:09:26;;;;;;;2.80;1.40;;;15.40;99.90;;;;;;5068723;28;20445;-78
2023/08/06 06:11:56;;;;;;;1.83;1.10;;;15.40;99.90;;;;;;5065292;28;20556;-77
2023/08/06 06:14:24;;;;;;;1.20;0.80;;;15.40;99.90;;;;;;5065239;28;20515;-78
2023/08/06 06:16:54;;;;;;;2.00;0.90;;;15.30;99.90;;;;;;5064971;28;20434;-78
2023/08/06 06:19:27;;;;;;;1.17;0.90;;;15.30;99.90;;;;;;5065716;28;20510;-78
2023/08/06 06:21:57;;;;;;;0.83;0.83;;;15.30;99.90;;;;;;5071800;28;20444;-79
2023/08/06 06:24:25;;;;;;;2.67;0.97;;;15.30;99.90;;;;;;5086088;28;20506;-78
2023/08/06 06:27:01;;;;;;;1.50;1.40;;;15.30;99.90;;;;;;5086017;28;20834;-78
2023/08/06 06:29:36;;;;;;;1.70;1.00;;;15.30;99.90;;;;;;5083941;28;20433;-77
2023/08/06 06:32:11;;;;;;;1.80;1.07;;;15.20;99.90;;;;;;5082457;28;20414;-77
2023/08/06 06:34:48;;;;;;;0.73;0.70;;;15.30;99.90;;;;;;5081482;28;20448;-78
2023/08/06 06:40:17;;;;;;;1.17;0.93;;;15.20;99.90;;;;;;5080305;28;20441;-78
2023/08/06 06:42:56;;;;;;;1.10;1.00;;;15.30;99.90;;;;;;5081980;28;20424;-77
2023/08/06 06:45:33;;;;;;;1.33;1.23;;;15.30;99.90;;;;;;5082552;28;20468;-75
2023/08/06 06:48:10;;;;;;;0.93;0.93;;;15.50;99.90;;;;;;5080971;28;20483;-77
2023/08/06 06:50:40;;;;;;;2.23;0.77;;;15.50;99.90;;;;;;5082026;28;20543;-78
2023/08/06 06:53:26;;;;;;;2.77;0.83;;;15.60;99.90;;;;;;5082361;28;20476;-76
2023/08/06 06:55:59;;;;;;;2.03;0.90;;;15.60;99.90;;;;;;5080056;28;20472;-79
2023/08/06 06:58:27;;;;;;;0.80;0.73;;;15.70;99.90;;;;;;5080747;28;20451;-77
2023/08/06 07:01:00;;;;;;;1.50;0.87;;;15.80;99.90;;;;;;5081062;28;20445;-77
2023/08/06 07:03:39;;;;;;;2.67;0.93;;;15.80;99.90;;;;;;5079882;28;20468;-78
2023/08/06 07:06:12;;;;;;;2.93;0.93;;;15.80;99.90;;;;;;5080046;28;20483;-77
2023/08/06 07:08:39;;;;;;;1.10;0.90;;;15.80;99.90;;;;;;5083295;28;20495;-78
2023/08/06 07:11:12;;;;;;;1.20;0.87;;;15.80;99.90;;;;;;5086641;28;20478;-77
2023/08/06 07:13:50;;;;;;;1.63;0.90;;;15.50;99.90;;;;;;5082933;28;20460;-76
2023/08/06 07:16:29;;;;;;;0.93;0.63;;;15.90;99.90;;;;;;5085480;28;20479;-80
2023/08/06 07:19:01;;;;;;;0.80;0.80;;;15.60;99.90;;;;;;5084388;28;20536;-77
2023/08/06 07:21:32;;;;;;;1.20;0.90;;;15.50;99.90;;;;;;5086057;28;20464;-78
2023/08/06 07:24:06;;;;;;;1.30;0.83;;;15.50;99.90;;;;;;5070127;28;20442;-77
2023/08/06 07:26:44;;;;;;;2.53;1.00;;;15.50;99.90;;;;;;5069640;28;20497;-78
2023/08/06 07:29:19;;;;;;;0.87;0.80;;;15.30;99.90;;;;;;5071337;28;20445;-78
2023/08/06 07:31:55;;;;;;;1.37;1.10;;;15.20;99.90;;;;;;5070489;28;20479;-76
2023/08/06 07:34:25;;;;;;;1.30;1.20;;;15.10;99.90;;;;;;5071500;28;20456;-79
2023/08/06 07:36:56;;;;;;;0.83;0.83;;;15.10;99.90;;;;;;5072636;28;20435;-78
2023/08/06 07:39:30;;;;;;;0.80;0.80;;;15.10;99.90;;;;;;5072745;28;20457;-79
2023/08/06 07:42:04;;;;;;;0.80;0.70;;;15.10;99.90;;;;;;5071482;28;20522;-77
2023/08/06 07:44:33;;;;;;;0.97;0.97;;;15.10;99.90;;;;;;5072484;28;20437;-78
2023/08/06 07:47:07;;;;;;;1.27;0.90;;;15.10;99.90;;;;;;5073516;28;20450;-77
2023/08/06 07:49:39;;;;;;;2.07;0.90;;;15.20;99.90;;;;;;5071714;28;20450;-77
2023/08/06 07:52:17;;;;;;;2.50;1.03;;;15.20;99.90;;;;;;5065427;28;20436;-78
2023/08/06 07:54:58;;;;;;;0.50;0.50;;;15.30;99.90;;;;;;5056941;28;20473;-79
2023/08/06 07:57:37;;;;;;;0.87;0.77;;;15.30;99.90;;;;;;5055599;28;20929;-80
2023/08/06 08:00:18;;;;;;;2.20;1.70;;;15.40;99.90;;;;;;5056668;28;20956;-78
2023/08/06 08:06:21;;;;;;;0.67;0.67;;;15.80;99.90;;;;;;5026489;28;20470;-77
2023/08/06 08:09:04;;;;;;;0.43;0.40;;;15.70;99.90;;;;;;5074663;28;20549;-77
2023/08/06 08:11:39;;;;;;;0.70;0.70;;;15.70;99.90;;;;;;5075189;28;20453;-77
2023/08/06 08:14:12;;;;;;;0.70;0.70;;;15.80;99.90;;;;;;5074535;28;20456;-79
2023/08/06 08:17:07;;;;;;;;;;;;;;;;;;;;;
2023/08/06 08:19:51;;;;;;;0.50;0.43;;;15.90;99.90;;;;;;5054673;28;20984;-77
2023/08/06 08:22:41;;;;;;;0.80;0.80;;;16.10;99.90;;;;;;5054953;28;20533;-78
2023/08/06 08:25:13;;;;;;;0.40;0.40;;;16.20;99.90;;;;;;5056924;28;20841;-77
2023/08/06 08:27:53;;;;;;;0.40;0.40;;;16.40;99.90;;;;;;5055603;28;20469;-77
2023/08/06 08:30:43;;;;;;;1.17;1.00;;;16.50;99.90;;;;;;5055985;28;20507;-77
2023/08/06 08:33:24;;;;;;;0.77;0.30;;;16.60;99.90;;;;;;5053674;28;20884;-77
2023/08/06 08:36:33;;;;;;;0.33;0.30;;;16.70;99.90;;;;;;5060647;28;20470;-77
2023/08/06 08:39:05;;;;;;;0.30;0.30;;;16.60;99.90;;;;;;5048390;28;20453;-77
2023/08/06 08:41:42;;;;;;;0.40;0.40;;;16.90;99.90;;;;;;5054293;28;20456;-80
2023/08/06 08:44:20;;;;;;;0.30;0.30;;;16.80;99.90;;;;;;5056724;28;20441;-76
2023/08/06 08:47:01;;;;;;;0.30;0.30;;;16.80;99.90;;;;;;5056126;28;20474;-78
2023/08/06 08:49:34;;;;;;;0.70;0.57;;;16.60;99.90;;;;;;5068898;28;20453;-77
2023/08/06 08:52:10;;;;;;;0.60;0.33;;;16.70;99.90;;;;;;5077460;28;20436;-79
2023/08/06 08:54:52;;;;;;;0.33;0.33;;;16.70;99.90;;;;;;5074892;28;20433;-80
2023/08/06 08:57:23;;;;;;;0.40;0.40;;;16.70;99.90;;;;;;5075422;28;20445;-79
2023/08/06 08:59:56;;;;;;;0.50;0.40;;;16.50;99.90;;;;;;5070880;28;20441;-77
2023/08/06 09:02:32;;;;;;;0.73;0.30;;;16.70;99.90;;;;;;5072821;28;20485;-79
2023/08/06 09:05:24;;;;;;;0.40;0.40;;;16.30;99.90;;;;;;5057112;28;20465;-78
2023/08/06 09:08:07;;;;;;;0.50;0.40;;;16.50;99.90;;;;;;5047961;28;20482;-78
2023/08/06 09:10:46;;;;;;;0.93;0.40;;;16.50;99.90;;;;;;5058685;28;20520;-79
2023/08/06 09:13:23;;;;;;;1.17;0.40;;;16.60;99.90;;;;;;5073620;28;20471;-79
2023/08/06 09:15:55;;;;;;;0.50;0.30;;;16.40;99.90;;;;;;5089480;28;20461;-78
2023/08/06 09:18:38;;;;;;;0.40;0.40;;;16.40;99.90;;;;;;5097682;28;20437;-79
2023/08/06 09:21:20;;;;;;;0.30;0.30;;;16.40;99.90;;;;;;5077700;28;20449;-79
2023/08/06 09:24:01;;;;;;;0.73;0.60;;;16.50;99.90;;;;;;5076133;28;20441;-79
2023/08/06 09:26:39;;;;;;;0.80;0.80;;;16.70;99.90;;;;;;5077223;28;20454;-77
2023/08/06 09:29:14;;;;;;;0.50;0.40;;;16.80;99.90;;;;;;5083412;28;20476;-79
2023/08/06 09:31:57;;;;;;;0.40;0.40;;;16.80;99.90;;;;;;5097343;28;20432;-78
2023/08/06 09:34:30;;;;;;;1.17;0.43;;;16.90;99.90;;;;;;5097386;28;20482;-76
2023/08/06 09:37:02;;;;;;;0.47;0.47;;;17.30;99.90;;;;;;5096929;28;20465;-78
2023/08/06 09:39:33;;;;;;;0.63;0.40;;;17.00;99.90;;;;;;5095939;28;20449;-78
2023/08/06 09:42:11;;;;;;;0.30;0.30;;;17.00;99.90;;;;;;5096563;28;20453;-80
2023/08/06 09:44:45;;;;;;;1.30;0.67;;;17.00;99.90;;;;;;5095741;28;20457;-79
2023/08/06 09:47:13;;;;;;;0.40;0.40;;;17.00;99.90;;;;;;5094180;28;20465;-78
2023/08/06 09:49:45;;;;;;;0.50;0.50;;;17.00;99.90;;;;;;5092718;28;20484;-77
2023/08/06 09:52:15;;;;;;;0.60;0.30;;;16.70;99.90;;;;;;5096875;28;20425;-79
2023/08/06 09:54:46;;;;;;;0.50;0.50;;;16.80;99.90;;;;;;5095710;28;20449;-79
2023/08/06 09:57:21;;;;;;;4.03;0.87;;;16.80;99.90;;;;;;5095463;28;20446;-80
2023/08/06 09:59:49;;;;;;;0.30;0.30;;;16.90;99.90;;;;;;5093900;28;20548;-78
2023/08/06 10:02:18;;;;;;;0.40;0.40;;;16.80;99.90;;;;;;5092139;28;20444;-77
2023/08/06 10:04:47;;;;;;;0.50;0.50;;;16.80;99.90;;;;;;5087225;28;20956;-79
2023/08/06 10:07:17;;;;;;;0.40;0.40;;;16.60;99.90;;;;;;5084493;28;20817;-79
2023/08/06 10:09:57;;;;;;;1.07;0.40;;;16.60;99.90;;;;;;5087596;28;20481;-80
2023/08/06 10:12:38;;;;;;;1.70;0.50;;;16.50;99.90;;;;;;5094012;28;20427;-80
2023/08/06 10:15:18;;;;;;;0.50;0.50;;;16.60;99.90;;;;;;5095942;28;20485;-78
2023/08/06 10:17:54;;;;;;;0.50;0.50;;;16.60;99.90;;;;;;5096888;28;20474;-77
2023/08/06 10:20:22;;;;;;;0.87;0.40;;;16.70;99.90;;;;;;5095723;28;20432;-79
2023/08/06 10:23:05;;;;;;;0.40;0.40;;;16.70;99.90;;;;;;5095691;28;20441;-80
2023/08/06 10:25:37;;;;;;;0.53;0.53;;;16.60;99.90;;;;;;5096059;28;20449;-80
2023/08/06 10:28:13;;;;;;;0.33;0.33;;;16.40;99.90;;;;;;5094471;28;20457;-81
2023/08/06 10:30:44;;;;;;;0.40;0.40;;;16.20;99.90;;;;;;5094200;28;20506;-79
2023/08/06 10:33:12;;;;;;;0.40;0.40;;;16.40;99.90;;;;;;5095653;28;20445;-78
2023/08/06 10:38:36;;;;;;;0.40;0.40;;;16.60;99.90;;;;;;5075946;28;20483;-78
2023/08/06 10:41:09;;;;;;;0.40;0.40;;;16.70;99.90;;;;;;5093853;28;20449;-79
2023/08/06 10:43:39;;;;;;;0.30;0.30;;;16.50;99.90;;;;;;5093121;28;20449;-80
2023/08/06 10:46:24;;;;;;;0.70;0.30;;;17.00;99.90;;;;;;5093343;28;20491;-78
2023/08/06 10:48:52;;;;;;;0.50;0.50;;;17.10;99.90;;;;;;5094240;28;20508;-81
2023/08/06 10:51:19;;;;;;;0.50;0.50;;;16.80;99.90;;;;;;5092285;28;20460;-79
2023/08/06 10:53:49;;;;;;;1.37;0.40;;;16.90;99.90;;;;;;5093314;28;20537;-77
2023/08/06 10:56:16;;;;;;;0.87;0.50;;;17.00;99.90;;;;;;5091989;28;20457;-77
2023/08/06 10:58:46;;;;;;;0.50;0.50;;;17.00;99.90;;;;;;5095326;28;20479;-78
2023/08/06 11:01:37;;;;;;;;;;;;;;;;;;;;;
2023/08/06 11:04:05;;;;;;;0.30;0.30;;;16.90;99.90;;;;;;5093825;28;20413;-81
2023/08/06 11:06:35;;;;;;;0.70;0.40;;;16.80;99.90;;;;;;5097425;28;20452;-81
2023/08/06 11:12:11;;;;;;;0.50;0.50;;;16.40;99.90;;;;;;5098400;28;20452;-79
2023/08/06 11:15:08;;;;;;;0.50;0.50;;;16.30;99.90;;;;;;5097991;28;20421;-79
2023/08/06 11:24:07;;;;;;;0.50;0.50;;;16.40;99.90;;;;;;5090966;28;20241;-77
2023/08/06 11:29:41;;;;;;;0.60;0.60;;;16.20;99.90;;;;;;5078898;28;20507;-79
2023/08/06 11:32:13;;;;;;;0.70;0.70;;;16.20;99.90;;;;;;5097190;28;21006;-79
2023/08/06 11:34:47;;;;;;;1.17;1.17;;;16.20;99.90;;;;;;5094351;28;20478;-78
2023/08/06 11:37:29;;;;;;;0.77;0.77;;;16.20;99.90;;;;;;5096803;28;20947;-80
2023/08/06 11:40:13;;;;;;;1.20;1.10;;;16.40;99.90;;;;;;5098233;28;21106;-79
2023/08/06 11:42:42;;;;;;;1.93;0.90;;;16.30;99.90;;;;;;5101328;28;20887;-79
2023/08/06 11:45:17;;;;;;;0.90;0.90;;;16.40;99.90;;;;;;5103245;28;20881;-79
2023/08/06 11:47:53;;;;;;;1.20;1.20;;;16.20;99.90;;;;;;5107746;28;20516;-78
2023/08/06 11:50:24;;;;;;;1.30;1.30;;;16.10;99.90;;;;;;5107517;28;20440;-78
2023/08/06 11:53:04;;;;;;;0.87;0.87;;;16.10;99.90;;;;;;5109426;28;20445;-79
2023/08/06 11:55:42;;;;;;;1.00;1.00;;;15.90;99.90;;;;;;5111278;28;20464;-77
2023/08/06 11:58:21;;;;;;;1.37;1.27;;;15.80;99.90;;;;;;5110048;28;20857;-77
2023/08/06 12:00:56;;;;;;;1.20;1.20;;;15.80;99.90;;;;;;5111377;28;20479;-79
2023/08/06 12:03:44;;;;;;;2.07;1.20;;;15.70;99.90;;;;;;5110914;28;20459;-79
2023/08/06 12:06:38;;;;;;;1.23;1.20;;;15.50;99.90;;;;;;5109611;28;20472;-79
2023/08/06 12:09:19;;;;;;;1.50;1.40;;;15.50;99.90;;;;;;5103924;28;20452;-78
2023/08/06 12:12:01;;;;;;;1.60;1.50;;;15.40;99.90;;;;;;5096616;28;20531;-77
2023/08/06 12:14:38;;;;;;;1.50;1.50;;;15.30;99.90;;;;;;5097125;28;20866;-78
2023/08/06 12:17:11;;;;;;;1.27;1.20;;;15.20;99.90;;;;;;5094902;28;20446;-76
2023/08/06 12:19:48;;;;;;;1.50;1.40;;;15.20;99.90;;;;;;5091717;28;20484;-79
2023/08/06 12:22:38;;;;;;;;;;;;;;;;;;;;;
2023/08/06 12:25:26;;;;;;;1.30;1.30;;;15.40;99.90;;;;;;5093097;28;20460;-76
2023/08/06 12:28:01;;;;;;;2.53;1.40;;;15.20;99.90;;;;;;5092903;28;20835;-80
2023/08/06 12:33:38;;;;;;;2.00;1.50;;;15.30;99.90;;;;;;5084319;28;20467;-79
2023/08/06 12:36:17;;;;;;;1.40;1.30;;;15.50;99.90;;;;;;5098319;28;20479;-77
2023/08/06 12:38:54;;;;;;;2.30;1.87;;;15.50;99.90;;;;;;5099042;28;20437;-80
2023/08/06 12:41:32;;;;;;;1.83;1.57;;;15.70;99.90;;;;;;5099241;28;20413;-80
2023/08/06 12:44:05;;;;;;;1.40;1.20;;;15.80;99.90;;;;;;5098866;28;20493;-77
2023/08/06 12:46:38;;;;;;;2.40;1.57;;;15.90;99.90;;;;;;5098485;28;20488;-79
2023/08/06 12:49:11;;;;;;;1.10;1.10;;;16.10;99.90;;;;;;5098995;28;20512;-78
2023/08/06 12:51:39;;;;;;;1.80;1.20;;;16.30;99.90;;;;;;5099260;28;20436;-76
2023/08/06 12:54:12;;;;;;;1.10;1.10;;;16.40;99.90;;;;;;5099595;28;20425;-80
2023/08/06 12:56:43;;;;;;;1.40;1.27;;;16.80;99.90;;;;;;5099659;28;20460;-76
2023/08/06 12:59:11;;;;;;;1.03;1.03;;;17.30;99.90;;;;;;5099877;28;20453;-78
2023/08/06 13:01:39;;;;;;;1.10;0.90;;;17.40;99.90;;;;;;5099056;28;20433;-77
2023/08/06 13:04:07;;;;;;;0.90;0.90;;;16.80;99.90;;;;;;5099015;28;20436;-77
2023/08/06 13:06:39;;;;;;;1.00;1.00;;;16.70;99.90;;;;;;5098688;28;20465;-78
2023/08/06 13:09:08;;;;;;;1.17;1.10;;;16.90;99.90;;;;;;5097998;28;20516;-77
2023/08/06 13:11:37;;;;;;;0.80;0.80;;;16.60;99.90;;;;;;5098533;28;20456;-80
2023/08/06 13:14:13;;;;;;;1.30;1.17;;;16.60;99.90;;;;;;5098396;28;20448;-77
2023/08/06 13:16:44;;;;;;;1.03;1.03;;;16.70;99.90;;;;;;5098251;28;20506;-75
2023/08/06 13:19:15;;;;;;;0.90;0.90;;;16.60;99.90;;;;;;5097771;28;20482;-78
2023/08/06 13:22:08;;;;;;;1.20;1.20;;;17.20;99.90;;;;;;5097988;28;20421;-78
2023/08/06 13:24:54;;;;;;;3.03;1.33;;;17.10;99.90;;;;;;5099382;28;20439;-78
2023/08/06 13:27:25;;;;;;;1.20;1.20;;;16.80;99.90;;;;;;5098744;28;20433;-76
2023/08/06 13:29:56;;;;;;;1.03;0.97;;;16.60;99.90;;;;;;5098904;28;20429;-76
2023/08/06 13:32:24;;;;;;;0.87;0.87;;;16.80;99.90;;;;;;5098663;28;20471;-77
2023/08/06 13:34:54;;;;;;;1.47;0.90;;;17.10;99.90;;;;;;5098488;28;20485;-77
2023/08/06 13:37:27;;;;;;;1.10;1.00;;;17.30;99.90;;;;;;5097177;28;20506;-78
2023/08/06 13:39:57;;;;;;;0.83;0.83;;;17.10;99.90;;;;;;5098707;28;20468;-78
2023/08/06 13:42:28;;;;;;;1.07;0.80;;;16.90;99.90;;;;;;5097389;28;20421;-78
2023/08/06 13:45:19;;;;;;;0.90;0.90;;;16.90;99.90;;;;;;5097963;28;20472;-77
2023/08/06 13:47:49;;;;;;;0.67;0.67;;;16.90;99.90;;;;;;5097949;28;20441;-80
2023/08/06 13:50:28;;;;;;;1.27;1.00;;;16.80;99.90;;;;;;5098259;28;20445;-77